Archival Weather

Republic

Farmingdale, New York (KFRG)

Report from: Wednesday, February 21, 2024 9:53 AM EST
Current time: Friday, June 14, 2024 9:12 AM EDT

Current weather – Weather history – Daily summaries
Weather forecast

Temperature2.2°C (36.0°F)
Wind chill-2.5°C (27.5°F)
Dew point-4.4°C (24.1°F)
Winds 11 kts (5.7 m/s, 12.7 mph) East (100°)
Visibility10 mi. (16.1 km)
Clouds Ceiling: Broken clouds 3,300 ft. (1,006 m)
Altimeter30.50 in.Hg (1033 mB)
Relative humidity62 %
Density altitude-2,152 ft. (-656 m)
Sea-level pressure103.3 kPa (1033 mB, 30.50 in.Hg)
Remarks Automated weather observing station without precipitation discriminator
Pressure rising more quickly
Flight conditions Visual Meteorological Conditions
Raw dataKFRG 211453Z 10011KT 10SM BKN033 02/M04 A3050 RMK AO1 SLP329 T00221044 53003
An error has occurred. This application may no longer respond until reloaded. Reload 🗙